sensor_id;sensor_type;location;lat;lon;timestamp;P1;durP1;ratioP1;P2;durP2;ratioP2
7338;SDS011;33747;49.524;8.390;2024-03-23T00:53:51;14.88;;;8.63;;
7338;SDS011;33747;49.524;8.390;2024-03-23T00:56:16;15.00;;;9.52;;
7338;SDS011;33747;49.524;8.390;2024-03-23T00:58:42;12.68;;;9.32;;
7338;SDS011;33747;49.524;8.390;2024-03-23T01:01:07;17.55;;;9.05;;
7338;SDS011;33747;49.524;8.390;2024-03-23T01:03:32;10.02;;;8.70;;
7338;SDS011;33747;49.524;8.390;2024-03-23T01:06:01;13.77;;;8.88;;
7338;SDS011;33747;49.524;8.390;2024-03-23T01:08:28;15.75;;;8.65;;
7338;SDS011;33747;49.524;8.390;2024-03-23T01:10:57;16.10;;;9.05;;
7338;SDS011;33747;49.524;8.390;2024-03-23T01:13:23;12.32;;;8.88;;
7338;SDS011;33747;49.524;8.390;2024-03-23T01:15:49;16.33;;;8.95;;
7338;SDS011;33747;49.524;8.390;2024-03-23T01:18:17;17.52;;;9.02;;
7338;SDS011;33747;49.524;8.390;2024-03-23T01:20:45;13.57;;;9.10;;
7338;SDS011;33747;49.524;8.390;2024-03-23T01:23:11;13.80;;;9.02;;
7338;SDS011;33747;49.524;8.390;2024-03-23T01:25:36;14.55;;;8.48;;
7338;SDS011;33747;49.524;8.390;2024-03-23T01:28:02;13.05;;;8.77;;
7338;SDS011;33747;49.524;8.390;2024-03-23T01:30:27;14.10;;;8.32;;
7338;SDS011;33747;49.524;8.390;2024-03-23T01:32:53;13.43;;;8.13;;
7338;SDS011;33747;49.524;8.390;2024-03-23T01:35:18;15.50;;;9.82;;
7338;SDS011;33747;49.524;8.390;2024-03-23T01:37:44;13.00;;;8.95;;
7338;SDS011;33747;49.524;8.390;2024-03-23T01:40:09;13.02;;;8.82;;
7338;SDS011;33747;49.524;8.390;2024-03-23T01:42:41;12.77;;;8.38;;
7338;SDS011;33747;49.524;8.390;2024-03-23T01:45:09;11.43;;;8.07;;
7338;SDS011;33747;49.524;8.390;2024-03-23T01:47:38;10.25;;;8.32;;
7338;SDS011;33747;49.524;8.390;2024-03-23T01:50:04;14.45;;;8.85;;
7338;SDS011;33747;49.524;8.390;2024-03-23T01:52:29;12.05;;;8.65;;
7338;SDS011;33747;49.524;8.390;2024-03-23T01:54:55;10.35;;;7.65;;
7338;SDS011;33747;49.524;8.390;2024-03-23T01:57:20;12.65;;;8.35;;
7338;SDS011;33747;49.524;8.390;2024-03-23T01:59:46;15.45;;;8.38;;
7338;SDS011;33747;49.524;8.390;2024-03-23T02:02:12;15.95;;;8.60;;
7338;SDS011;33747;49.524;8.390;2024-03-23T02:04:37;16.35;;;8.27;;
7338;SDS011;33747;49.524;8.390;2024-03-23T02:07:03;14.15;;;8.05;;
7338;SDS011;33747;49.524;8.390;2024-03-23T02:09:30;9.85;;;7.70;;
7338;SDS011;33747;49.524;8.390;2024-03-23T02:11:56;13.57;;;8.18;;
7338;SDS011;33747;49.524;8.390;2024-03-23T02:14:22;11.60;;;7.80;;
7338;SDS011;33747;49.524;8.390;2024-03-23T02:16:47;13.15;;;8.23;;
7338;SDS011;33747;49.524;8.390;2024-03-23T02:19:12;12.95;;;8.60;;
7338;SDS011;33747;49.524;8.390;2024-03-23T02:21:39;11.05;;;8.55;;
7338;SDS011;33747;49.524;8.390;2024-03-23T02:24:04;12.07;;;7.35;;
7338;SDS011;33747;49.524;8.390;2024-03-23T02:26:30;14.35;;;7.78;;
7338;SDS011;33747;49.524;8.390;2024-03-23T02:28:55;16.40;;;7.38;;
7338;SDS011;33747;49.524;8.390;2024-03-23T02:31:20;16.35;;;8.60;;
7338;SDS011;33747;49.524;8.390;2024-03-23T02:33:46;10.13;;;7.13;;
7338;SDS011;33747;49.524;8.390;2024-03-23T02:36:11;12.50;;;7.43;;
7338;SDS011;33747;49.524;8.390;2024-03-23T02:38:37;10.27;;;8.23;;
7338;SDS011;33747;49.524;8.390;2024-03-23T02:41:03;18.23;;;8.13;;
7338;SDS011;33747;49.524;8.390;2024-03-23T02:43:28;14.27;;;8.32;;
7338;SDS011;33747;49.524;8.390;2024-03-23T02:45:54;8.90;;;6.80;;
7338;SDS011;33747;49.524;8.390;2024-03-23T02:48:19;14.00;;;7.50;;
7338;SDS011;33747;49.524;8.390;2024-03-23T02:50:45;12.27;;;7.53;;
7338;SDS011;33747;49.524;8.390;2024-03-23T02:53:10;10.52;;;7.53;;
7338;SDS011;33747;49.524;8.390;2024-03-23T02:55:36;14.13;;;8.98;;
7338;SDS011;33747;49.524;8.390;2024-03-23T02:58:01;16.73;;;9.85;;
7338;SDS011;33747;49.524;8.390;2024-03-23T03:00:27;14.85;;;9.73;;
7338;SDS011;33747;49.524;8.390;2024-03-23T03:02:53;13.32;;;9.52;;
7338;SDS011;33747;49.524;8.390;2024-03-23T03:05:18;20.00;;;10.57;;
7338;SDS011;33747;49.524;8.390;2024-03-23T03:07:43;13.95;;;9.32;;
7338;SDS011;33747;49.524;8.390;2024-03-23T03:10:09;13.75;;;9.55;;
7338;SDS011;33747;49.524;8.390;2024-03-23T03:12:36;16.67;;;10.90;;
7338;SDS011;33747;49.524;8.390;2024-03-23T03:15:02;21.25;;;12.13;;
7338;SDS011;33747;49.524;8.390;2024-03-23T03:17:28;17.50;;;12.32;;
7338;SDS011;33747;49.524;8.390;2024-03-23T03:19:53;24.63;;;12.68;;
7338;SDS011;33747;49.524;8.390;2024-03-23T03:22:20;24.27;;;12.85;;
7338;SDS011;33747;49.524;8.390;2024-03-23T03:24:46;18.80;;;12.32;;
7338;SDS011;33747;49.524;8.390;2024-03-23T03:27:12;17.65;;;12.52;;
7338;SDS011;33747;49.524;8.390;2024-03-23T03:29:37;19.27;;;12.45;;
7338;SDS011;33747;49.524;8.390;2024-03-23T03:32:03;18.42;;;11.93;;
7338;SDS011;33747;49.524;8.390;2024-03-23T03:34:29;20.52;;;13.55;;
7338;SDS011;33747;49.524;8.390;2024-03-23T03:36:54;24.10;;;13.07;;
7338;SDS011;33747;49.524;8.390;2024-03-23T03:39:20;22.90;;;13.15;;
7338;SDS011;33747;49.524;8.390;2024-03-23T03:41:47;21.20;;;13.68;;
7338;SDS011;33747;49.524;8.390;2024-03-23T03:44:13;23.98;;;14.05;;
7338;SDS011;33747;49.524;8.390;2024-03-23T03:46:38;18.88;;;12.60;;
7338;SDS011;33747;49.524;8.390;2024-03-23T03:49:04;24.70;;;14.13;;
7338;SDS011;33747;49.524;8.390;2024-03-23T03:51:30;21.92;;;13.48;;
7338;SDS011;33747;49.524;8.390;2024-03-23T03:53:55;21.27;;;12.63;;
7338;SDS011;33747;49.524;8.390;2024-03-23T03:56:21;23.83;;;13.35;;
7338;SDS011;33747;49.524;8.390;2024-03-23T03:58:47;19.88;;;13.27;;
7338;SDS011;33747;49.524;8.390;2024-03-23T04:01:12;22.95;;;12.38;;
7338;SDS011;33747;49.524;8.390;2024-03-23T04:03:38;16.83;;;11.82;;
7338;SDS011;33747;49.524;8.390;2024-03-23T04:06:08;16.80;;;11.05;;
7338;SDS011;33747;49.524;8.390;2024-03-23T04:08:33;18.10;;;11.32;;
7338;SDS011;33747;49.524;8.390;2024-03-23T04:10:59;19.90;;;12.43;;
7338;SDS011;33747;49.524;8.390;2024-03-23T04:13:24;21.40;;;11.25;;
7338;SDS011;33747;49.524;8.390;2024-03-23T04:15:53;18.00;;;11.98;;
7338;SDS011;33747;49.524;8.390;2024-03-23T04:18:19;18.02;;;11.73;;
7338;SDS011;33747;49.524;8.390;2024-03-23T04:20:44;18.60;;;12.48;;
7338;SDS011;33747;49.524;8.390;2024-03-23T04:23:10;20.13;;;12.73;;
7338;SDS011;33747;49.524;8.390;2024-03-23T04:25:35;16.17;;;11.15;;
7338;SDS011;33747;49.524;8.390;2024-03-23T04:28:01;19.05;;;10.90;;
7338;SDS011;33747;49.524;8.390;2024-03-23T04:30:27;16.70;;;10.75;;
7338;SDS011;33747;49.524;8.390;2024-03-23T04:32:54;15.70;;;12.40;;
7338;SDS011;33747;49.524;8.390;2024-03-23T04:35:19;15.63;;;10.07;;
7338;SDS011;33747;49.524;8.390;2024-03-23T04:37:47;16.15;;;11.43;;
7338;SDS011;33747;49.524;8.390;2024-03-23T04:40:12;20.20;;;10.02;;
7338;SDS011;33747;49.524;8.390;2024-03-23T04:42:38;12.15;;;9.48;;
7338;SDS011;33747;49.524;8.390;2024-03-23T04:45:04;10.00;;;7.35;;
7338;SDS011;33747;49.524;8.390;2024-03-23T04:47:31;11.40;;;7.40;;
7338;SDS011;33747;49.524;8.390;2024-03-23T04:49:56;6.40;;;5.38;;
7338;SDS011;33747;49.524;8.390;2024-03-23T04:52:21;9.20;;;5.60;;
7338;SDS011;33747;49.524;8.390;2024-03-23T04:54:47;7.20;;;5.60;;
7338;SDS011;33747;49.524;8.390;2024-03-23T04:57:12;10.15;;;4.80;;
7338;SDS011;33747;49.524;8.390;2024-03-23T04:59:38;8.70;;;5.60;;
7338;SDS011;33747;49.524;8.390;2024-03-23T05:02:03;9.10;;;5.70;;
7338;SDS011;33747;49.524;8.390;2024-03-23T05:04:29;5.90;;;4.85;;
7338;SDS011;33747;49.524;8.390;2024-03-23T05:06:54;5.05;;;4.45;;
7338;SDS011;33747;49.524;8.390;2024-03-23T05:09:19;5.32;;;4.22;;
7338;SDS011;33747;49.524;8.390;2024-03-23T05:11:45;4.20;;;3.72;;
7338;SDS011;33747;49.524;8.390;2024-03-23T05:14:11;5.53;;;3.90;;
7338;SDS011;33747;49.524;8.390;2024-03-23T05:16:37;10.75;;;4.28;;
7338;SDS011;33747;49.524;8.390;2024-03-23T05:19:03;6.88;;;4.38;;
7338;SDS011;33747;49.524;8.390;2024-03-23T05:21:28;5.20;;;3.88;;
7338;SDS011;33747;49.524;8.390;2024-03-23T05:23:55;5.07;;;3.92;;
7338;SDS011;33747;49.524;8.390;2024-03-23T05:26:21;6.57;;;2.97;;
7338;SDS011;33747;49.524;8.390;2024-03-23T05:28:47;2.70;;;2.30;;
7338;SDS011;33747;49.524;8.390;2024-03-23T05:31:23;2.22;;;1.92;;
7338;SDS011;33747;49.524;8.390;2024-03-23T05:33:49;2.10;;;1.73;;
7338;SDS011;33747;49.524;8.390;2024-03-23T05:36:14;1.90;;;1.65;;
7338;SDS011;33747;49.524;8.390;2024-03-23T05:38:40;1.65;;;1.55;;
7338;SDS011;33747;49.524;8.390;2024-03-23T05:41:05;1.88;;;1.48;;
7338;SDS011;33747;49.524;8.390;2024-03-23T05:43:30;2.53;;;1.95;;
7338;SDS011;33747;49.524;8.390;2024-03-23T05:45:56;1.90;;;1.70;;
7338;SDS011;33747;49.524;8.390;2024-03-23T05:48:22;3.17;;;1.73;;
7338;SDS011;33747;49.524;8.390;2024-03-23T05:50:48;1.92;;;1.63;;
7338;SDS011;33747;49.524;8.390;2024-03-23T05:53:14;1.80;;;1.70;;
7338;SDS011;33747;49.524;8.390;2024-03-23T05:55:40;1.70;;;1.60;;
7338;SDS011;33747;49.524;8.390;2024-03-23T05:58:06;1.92;;;1.77;;
7338;SDS011;33747;49.524;8.390;2024-03-23T06:00:31;1.90;;;1.45;;
7338;SDS011;33747;49.524;8.390;2024-03-23T06:02:57;2.17;;;1.73;;
7338;SDS011;33747;49.524;8.390;2024-03-23T06:05:22;1.40;;;1.30;;
7338;SDS011;33747;49.524;8.390;2024-03-23T06:07:48;2.03;;;1.35;;
7338;SDS011;33747;49.524;8.390;2024-03-23T06:10:14;1.02;;;1.02;;
7338;SDS011;33747;49.524;8.390;2024-03-23T06:12:40;3.50;;;1.30;;
7338;SDS011;33747;49.524;8.390;2024-03-23T06:15:05;1.00;;;0.90;;
7338;SDS011;33747;49.524;8.390;2024-03-23T06:17:35;1.17;;;1.08;;
7338;SDS011;33747;49.524;8.390;2024-03-23T06:20:03;1.00;;;1.00;;
7338;SDS011;33747;49.524;8.390;2024-03-23T06:22:29;0.77;;;0.77;;
7338;SDS011;33747;49.524;8.390;2024-03-23T06:24:54;2.47;;;0.80;;
7338;SDS011;33747;49.524;8.390;2024-03-23T06:27:20;0.47;;;0.47;;
7338;SDS011;33747;49.524;8.390;2024-03-23T06:29:45;0.52;;;0.52;;
7338;SDS011;33747;49.524;8.390;2024-03-23T06:32:10;0.52;;;0.52;;
7338;SDS011;33747;49.524;8.390;2024-03-23T06:34:36;0.70;;;0.70;;
7338;SDS011;33747;49.524;8.390;2024-03-23T06:37:01;0.85;;;0.70;;
7338;SDS011;33747;49.524;8.390;2024-03-23T06:39:28;0.50;;;0.50;;
7338;SDS011;33747;49.524;8.390;2024-03-23T06:41:55;0.55;;;0.55;;
7338;SDS011;33747;49.524;8.390;2024-03-23T06:44:21;0.43;;;0.43;;
7338;SDS011;33747;49.524;8.390;2024-03-23T06:46:47;2.20;;;1.30;;
7338;SDS011;33747;49.524;8.390;2024-03-23T06:49:13;0.40;;;0.40;;
7338;SDS011;33747;49.524;8.390;2024-03-23T06:51:40;0.98;;;0.52;;
7338;SDS011;33747;49.524;8.390;2024-03-23T06:54:05;0.47;;;0.47;;
7338;SDS011;33747;49.524;8.390;2024-03-23T06:56:31;0.40;;;0.40;;
7338;SDS011;33747;49.524;8.390;2024-03-23T06:58:56;1.05;;;0.50;;
7338;SDS011;33747;49.524;8.390;2024-03-23T07:01:23;0.70;;;0.60;;
7338;SDS011;33747;49.524;8.390;2024-03-23T07:03:49;1.27;;;0.60;;
7338;SDS011;33747;49.524;8.390;2024-03-23T07:06:14;4.13;;;0.70;;
7338;SDS011;33747;49.524;8.390;2024-03-23T07:08:40;0.80;;;0.50;;
7338;SDS011;33747;49.524;8.390;2024-03-23T07:11:05;0.60;;;0.60;;
7338;SDS011;33747;49.524;8.390;2024-03-23T07:13:31;0.52;;;0.52;;
7338;SDS011;33747;49.524;8.390;2024-03-23T07:15:56;2.13;;;0.60;;
7338;SDS011;33747;49.524;8.390;2024-03-23T07:18:23;0.60;;;0.60;;
7338;SDS011;33747;49.524;8.390;2024-03-23T07:20:52;1.02;;;0.70;;
7338;SDS011;33747;49.524;8.390;2024-03-23T07:23:24;3.30;;;1.05;;
7338;SDS011;33747;49.524;8.390;2024-03-23T07:25:59;0.82;;;0.82;;
7338;SDS011;33747;49.524;8.390;2024-03-23T07:28:29;4.55;;;0.98;;
7338;SDS011;33747;49.524;8.390;2024-03-23T07:31:03;2.13;;;0.82;;
7338;SDS011;33747;49.524;8.390;2024-03-23T07:33:29;1.13;;;1.02;;
7338;SDS011;33747;49.524;8.390;2024-03-23T07:35:55;1.55;;;1.00;;
7338;SDS011;33747;49.524;8.390;2024-03-23T07:38:20;4.22;;;1.20;;
7338;SDS011;33747;49.524;8.390;2024-03-23T07:40:46;1.70;;;0.80;;
7338;SDS011;33747;49.524;8.390;2024-03-23T07:43:11;2.35;;;0.90;;
7338;SDS011;33747;49.524;8.390;2024-03-23T07:45:37;1.38;;;1.15;;
7338;SDS011;33747;49.524;8.390;2024-03-23T07:48:03;3.83;;;1.13;;
7338;SDS011;33747;49.524;8.390;2024-03-23T07:50:29;4.78;;;1.17;;
7338;SDS011;33747;49.524;8.390;2024-03-23T07:52:55;4.05;;;1.63;;
7338;SDS011;33747;49.524;8.390;2024-03-23T07:55:23;2.47;;;1.35;;
7338;SDS011;33747;49.524;8.390;2024-03-23T07:57:50;4.10;;;1.25;;
7338;SDS011;33747;49.524;8.390;2024-03-23T08:00:17;2.40;;;1.50;;
7338;SDS011;33747;49.524;8.390;2024-03-23T08:02:43;16.90;;;1.58;;
7338;SDS011;33747;49.524;8.390;2024-03-23T08:05:10;4.85;;;1.40;;
7338;SDS011;33747;49.524;8.390;2024-03-23T08:07:35;6.00;;;1.83;;
7338;SDS011;33747;49.524;8.390;2024-03-23T08:10:01;5.10;;;1.65;;
7338;SDS011;33747;49.524;8.390;2024-03-23T08:12:29;4.30;;;1.73;;
7338;SDS011;33747;49.524;8.390;2024-03-23T08:14:55;5.85;;;1.50;;
7338;SDS011;33747;49.524;8.390;2024-03-23T08:17:21;6.47;;;1.73;;
7338;SDS011;33747;49.524;8.390;2024-03-23T08:19:46;5.38;;;1.45;;
7338;SDS011;33747;49.524;8.390;2024-03-23T08:22:11;6.65;;;1.90;;
7338;SDS011;33747;49.524;8.390;2024-03-23T08:24:37;6.20;;;1.67;;
7338;SDS011;33747;49.524;8.390;2024-03-23T08:27:04;5.45;;;1.85;;
7338;SDS011;33747;49.524;8.390;2024-03-23T08:29:29;6.45;;;2.17;;
7338;SDS011;33747;49.524;8.390;2024-03-23T08:31:55;6.60;;;2.10;;
7338;SDS011;33747;49.524;8.390;2024-03-23T08:34:21;9.63;;;2.55;;
7338;SDS011;33747;49.524;8.390;2024-03-23T08:36:47;5.93;;;1.55;;
7338;SDS011;33747;49.524;8.390;2024-03-23T08:39:12;4.82;;;2.03;;
7338;SDS011;33747;49.524;8.390;2024-03-23T08:41:37;8.10;;;1.88;;
7338;SDS011;33747;49.524;8.390;2024-03-23T08:44:03;9.73;;;2.10;;
7338;SDS011;33747;49.524;8.390;2024-03-23T08:46:29;14.00;;;2.17;;
7338;SDS011;33747;49.524;8.390;2024-03-23T08:48:55;6.40;;;2.17;;
7338;SDS011;33747;49.524;8.390;2024-03-23T08:51:21;5.85;;;2.35;;
7338;SDS011;33747;49.524;8.390;2024-03-23T08:53:46;8.73;;;2.72;;
7338;SDS011;33747;49.524;8.390;2024-03-23T08:56:12;9.25;;;2.90;;
7338;SDS011;33747;49.524;8.390;2024-03-23T08:58:37;6.55;;;2.70;;
7338;SDS011;33747;49.524;8.390;2024-03-23T09:01:10;14.35;;;3.15;;
7338;SDS011;33747;49.524;8.390;2024-03-23T09:03:39;7.70;;;2.80;;
7338;SDS011;33747;49.524;8.390;2024-03-23T09:06:08;6.05;;;2.50;;
7338;SDS011;33747;49.524;8.390;2024-03-23T09:08:37;7.00;;;2.17;;
7338;SDS011;33747;49.524;8.390;2024-03-23T09:11:04;7.82;;;2.53;;
7338;SDS011;33747;49.524;8.390;2024-03-23T09:13:37;10.85;;;2.53;;
7338;SDS011;33747;49.524;8.390;2024-03-23T09:16:03;8.30;;;3.20;;
7338;SDS011;33747;49.524;8.390;2024-03-23T09:18:34;7.78;;;2.70;;
7338;SDS011;33747;49.524;8.390;2024-03-23T09:21:00;8.60;;;2.65;;
7338;SDS011;33747;49.524;8.390;2024-03-23T09:23:26;8.32;;;2.65;;
7338;SDS011;33747;49.524;8.390;2024-03-23T09:25:51;6.80;;;2.40;;
7338;SDS011;33747;49.524;8.390;2024-03-23T09:28:17;8.65;;;3.03;;
7338;SDS011;33747;49.524;8.390;2024-03-23T09:30:42;11.82;;;3.15;;
7338;SDS011;33747;49.524;8.390;2024-03-23T09:33:12;4.90;;;2.58;;
7338;SDS011;33747;49.524;8.390;2024-03-23T09:35:41;10.00;;;2.63;;
7338;SDS011;33747;49.524;8.390;2024-03-23T09:38:08;12.88;;;3.15;;
7338;SDS011;33747;49.524;8.390;2024-03-23T09:40:34;10.88;;;3.15;;
7338;SDS011;33747;49.524;8.390;2024-03-23T09:42:59;10.10;;;3.05;;
7338;SDS011;33747;49.524;8.390;2024-03-23T09:45:28;15.63;;;3.10;;
7338;SDS011;33747;49.524;8.390;2024-03-23T09:47:57;10.27;;;2.55;;
7338;SDS011;33747;49.524;8.390;2024-03-23T09:50:22;15.30;;;2.92;;
7338;SDS011;33747;49.524;8.390;2024-03-23T09:52:48;8.82;;;2.72;;
7338;SDS011;33747;49.524;8.390;2024-03-23T09:55:13;8.80;;;3.08;;
7338;SDS011;33747;49.524;8.390;2024-03-23T09:57:39;7.57;;;2.80;;
7338;SDS011;33747;49.524;8.390;2024-03-23T10:00:06;8.80;;;2.17;;
7338;SDS011;33747;49.524;8.390;2024-03-23T10:02:33;8.20;;;2.88;;
7338;SDS011;33747;49.524;8.390;2024-03-23T10:04:59;10.43;;;2.53;;
7338;SDS011;33747;49.524;8.390;2024-03-23T10:07:25;7.53;;;2.63;;
7338;SDS011;33747;49.524;8.390;2024-03-23T10:09:50;5.28;;;2.42;;
7338;SDS011;33747;49.524;8.390;2024-03-23T10:12:17;7.53;;;2.47;;
7338;SDS011;33747;49.524;8.390;2024-03-23T10:14:43;5.60;;;2.65;;
7338;SDS011;33747;49.524;8.390;2024-03-23T10:17:12;5.53;;;2.10;;
7338;SDS011;33747;49.524;8.390;2024-03-23T10:19:49;7.10;;;1.90;;
7338;SDS011;33747;49.524;8.390;2024-03-23T10:22:18;6.78;;;2.42;;
7338;SDS011;33747;49.524;8.390;2024-03-23T10:24:44;7.07;;;2.20;;
7338;SDS011;33747;49.524;8.390;2024-03-23T10:27:14;5.22;;;2.30;;
7338;SDS011;33747;49.524;8.390;2024-03-23T10:29:40;10.88;;;2.17;;
7338;SDS011;33747;49.524;8.390;2024-03-23T10:32:09;9.13;;;2.03;;
7338;SDS011;33747;49.524;8.390;2024-03-23T10:34:36;5.93;;;2.65;;
7338;SDS011;33747;49.524;8.390;2024-03-23T10:37:02;6.25;;;2.20;;
7338;SDS011;33747;49.524;8.390;2024-03-23T10:39:36;4.63;;;2.13;;
7338;SDS011;33747;49.524;8.390;2024-03-23T10:42:05;3.30;;;1.83;;
7338;SDS011;33747;49.524;8.390;2024-03-23T10:44:32;10.02;;;1.98;;
7338;SDS011;33747;49.524;8.390;2024-03-23T10:46:58;9.18;;;2.38;;
7338;SDS011;33747;49.524;8.390;2024-03-23T10:49:32;6.90;;;1.98;;
7338;SDS011;33747;49.524;8.390;2024-03-23T10:51:58;6.07;;;2.17;;
7338;SDS011;33747;49.524;8.390;2024-03-23T10:54:27;7.13;;;2.08;;
7338;SDS011;33747;49.524;8.390;2024-03-23T10:56:58;7.07;;;2.25;;
7338;SDS011;33747;49.524;8.390;2024-03-23T11:01:56;5.00;;;1.98;;
7338;SDS011;33747;49.524;8.390;2024-03-23T11:04:38;8.55;;;2.00;;
7338;SDS011;33747;49.524;8.390;2024-03-23T11:07:10;7.53;;;2.28;;
7338;SDS011;33747;49.524;8.390;2024-03-23T11:09:49;9.30;;;2.25;;
7338;SDS011;33747;49.524;8.390;2024-03-23T11:14:50;10.07;;;2.47;;
7338;SDS011;33747;49.524;8.390;2024-03-23T11:17:19;6.32;;;2.10;;
7338;SDS011;33747;49.524;8.390;2024-03-23T11:27:47;8.15;;;1.77;;
7338;SDS011;33747;49.524;8.390;2024-03-23T11:32:55;1.50;;;1.27;;
7338;SDS011;33747;49.524;8.390;2024-03-23T11:35:30;7.63;;;1.17;;
7338;SDS011;33747;49.524;8.390;2024-03-23T11:38:02;9.35;;;1.50;;
7338;SDS011;33747;49.524;8.390;2024-03-23T11:40:38;5.10;;;1.60;;
7338;SDS011;33747;49.524;8.390;2024-03-23T11:43:07;3.80;;;2.20;;
7338;SDS011;33747;49.524;8.390;2024-03-23T11:45:35;3.10;;;1.73;;
7338;SDS011;33747;49.524;8.390;2024-03-23T11:48:02;4.88;;;1.67;;
7338;SDS011;33747;49.524;8.390;2024-03-23T11:50:31;8.73;;;2.00;;
7338;SDS011;33747;49.524;8.390;2024-03-23T11:53:06;6.97;;;1.80;;
7338;SDS011;33747;49.524;8.390;2024-03-23T11:55:56;3.45;;;1.95;;
7338;SDS011;33747;49.524;8.390;2024-03-23T11:58:24;3.88;;;2.25;;
7338;SDS011;33747;49.524;8.390;2024-03-23T12:01:00;3.05;;;1.80;;
7338;SDS011;33747;49.524;8.390;2024-03-23T12:03:30;3.35;;;1.92;;
7338;SDS011;33747;49.524;8.390;2024-03-23T12:06:01;4.95;;;2.10;;
7338;SDS011;33747;49.524;8.390;2024-03-23T12:08:31;5.05;;;1.58;;
7338;SDS011;33747;49.524;8.390;2024-03-23T12:11:04;3.40;;;1.60;;
7338;SDS011;33747;49.524;8.390;2024-03-23T12:13:38;6.50;;;1.70;;
7338;SDS011;33747;49.524;8.390;2024-03-23T12:16:11;4.00;;;2.38;;
7338;SDS011;33747;49.524;8.390;2024-03-23T12:18:37;7.03;;;2.25;;
7338;SDS011;33747;49.524;8.390;2024-03-23T12:21:05;6.15;;;2.00;;
7338;SDS011;33747;49.524;8.390;2024-03-23T12:23:30;4.38;;;1.92;;
7338;SDS011;33747;49.524;8.390;2024-03-23T12:25:55;5.57;;;2.00;;
7338;SDS011;33747;49.524;8.390;2024-03-23T12:28:21;2.55;;;1.38;;
7338;SDS011;33747;49.524;8.390;2024-03-23T12:30:46;1.60;;;1.20;;
7338;SDS011;33747;49.524;8.390;2024-03-23T12:33:12;4.78;;;1.60;;
7338;SDS011;33747;49.524;8.390;2024-03-23T12:35:37;1.52;;;1.20;;
7338;SDS011;33747;49.524;8.390;2024-03-23T12:38:02;6.65;;;1.67;;
7338;SDS011;33747;49.524;8.390;2024-03-23T12:40:28;2.88;;;1.63;;
7338;SDS011;33747;49.524;8.390;2024-03-23T12:42:53;4.53;;;1.40;;
7338;SDS011;33747;49.524;8.390;2024-03-23T12:45:19;13.52;;;2.90;;
7338;SDS011;33747;49.524;8.390;2024-03-23T12:47:44;6.30;;;2.42;;
7338;SDS011;33747;49.524;8.390;2024-03-23T12:50:10;3.53;;;1.90;;
7338;SDS011;33747;49.524;8.390;2024-03-23T12:52:36;2.33;;;0.90;;
7338;SDS011;33747;49.524;8.390;2024-03-23T12:55:07;2.97;;;1.10;;
7338;SDS011;33747;49.524;8.390;2024-03-23T12:57:33;1.60;;;1.50;;
7338;SDS011;33747;49.524;8.390;2024-03-23T12:59:59;3.55;;;1.58;;
7338;SDS011;33747;49.524;8.390;2024-03-23T13:02:24;1.98;;;1.50;;
7338;SDS011;33747;49.524;8.390;2024-03-23T13:04:50;3.30;;;1.35;;
7338;SDS011;33747;49.524;8.390;2024-03-23T13:07:16;3.88;;;1.30;;
7338;SDS011;33747;49.524;8.390;2024-03-23T13:09:42;4.05;;;1.27;;
7338;SDS011;33747;49.524;8.390;2024-03-23T13:12:07;4.90;;;1.25;;
7338;SDS011;33747;49.524;8.390;2024-03-23T13:14:33;1.27;;;0.70;;
7338;SDS011;33747;49.524;8.390;2024-03-23T13:16:59;1.85;;;1.00;;
7338;SDS011;33747;49.524;8.390;2024-03-23T13:19:24;2.67;;;1.20;;
7338;SDS011;33747;49.524;8.390;2024-03-23T13:21:55;2.38;;;0.95;;
7338;SDS011;33747;49.524;8.390;2024-03-23T13:24:21;1.20;;;0.80;;
7338;SDS011;33747;49.524;8.390;2024-03-23T13:26:49;2.17;;;1.05;;
7338;SDS011;33747;49.524;8.390;2024-03-23T13:29:14;5.82;;;1.00;;
7338;SDS011;33747;49.524;8.390;2024-03-23T13:31:39;3.03;;;1.08;;
7338;SDS011;33747;49.524;8.390;2024-03-23T13:34:06;4.82;;;1.10;;
7338;SDS011;33747;49.524;8.390;2024-03-23T13:36:31;2.28;;;0.90;;
7338;SDS011;33747;49.524;8.390;2024-03-23T13:38:58;2.63;;;0.90;;
7338;SDS011;33747;49.524;8.390;2024-03-23T13:41:24;3.67;;;1.10;;
7338;SDS011;33747;49.524;8.390;2024-03-23T13:43:49;1.17;;;0.80;;
7338;SDS011;33747;49.524;8.390;2024-03-23T13:46:15;2.42;;;0.98;;
7338;SDS011;33747;49.524;8.390;2024-03-23T13:48:40;2.75;;;0.90;;
7338;SDS011;33747;49.524;8.390;2024-03-23T13:51:07;3.92;;;2.00;;
7338;SDS011;33747;49.524;8.390;2024-03-23T13:53:32;2.88;;;0.93;;
7338;SDS011;33747;49.524;8.390;2024-03-23T13:55:58;2.83;;;1.05;;
7338;SDS011;33747;49.524;8.390;2024-03-23T13:58:23;2.00;;;0.80;;
7338;SDS011;33747;49.524;8.390;2024-03-23T14:00:50;4.93;;;0.98;;
7338;SDS011;33747;49.524;8.390;2024-03-23T14:03:16;4.03;;;1.20;;
7338;SDS011;33747;49.524;8.390;2024-03-23T14:05:42;3.13;;;1.23;;
7338;SDS011;33747;49.524;8.390;2024-03-23T14:08:07;2.83;;;1.15;;
7338;SDS011;33747;49.524;8.390;2024-03-23T14:10:33;0.82;;;0.80;;
7338;SDS011;33747;49.524;8.390;2024-03-23T14:13:00;2.78;;;1.20;;
7338;SDS011;33747;49.524;8.390;2024-03-23T14:15:26;3.55;;;1.10;;
7338;SDS011;33747;49.524;8.390;2024-03-23T14:17:52;1.50;;;0.75;;
7338;SDS011;33747;49.524;8.390;2024-03-23T14:20:17;1.73;;;0.70;;
7338;SDS011;33747;49.524;8.390;2024-03-23T14:22:42;2.67;;;1.10;;
7338;SDS011;33747;49.524;8.390;2024-03-23T14:25:08;3.88;;;1.35;;
7338;SDS011;33747;49.524;8.390;2024-03-23T14:27:34;2.38;;;1.30;;
7338;SDS011;33747;49.524;8.390;2024-03-23T14:30:02;2.25;;;0.90;;
7338;SDS011;33747;49.524;8.390;2024-03-23T14:32:30;1.20;;;0.77;;
7338;SDS011;33747;49.524;8.390;2024-03-23T14:35:02;3.22;;;0.90;;
7338;SDS011;33747;49.524;8.390;2024-03-23T14:37:27;2.80;;;1.60;;
7338;SDS011;33747;49.524;8.390;2024-03-23T14:39:55;1.27;;;0.95;;
7338;SDS011;33747;49.524;8.390;2024-03-23T14:42:22;0.75;;;0.75;;
7338;SDS011;33747;49.524;8.390;2024-03-23T14:44:48;0.68;;;0.68;;
7338;SDS011;33747;49.524;8.390;2024-03-23T14:47:14;1.50;;;0.80;;
7338;SDS011;33747;49.524;8.390;2024-03-23T14:49:39;2.78;;;1.60;;
7338;SDS011;33747;49.524;8.390;2024-03-23T14:52:06;5.88;;;2.53;;
7338;SDS011;33747;49.524;8.390;2024-03-23T14:54:33;4.97;;;2.70;;
7338;SDS011;33747;49.524;8.390;2024-03-23T14:57:00;5.93;;;3.08;;
7338;SDS011;33747;49.524;8.390;2024-03-23T14:59:25;9.05;;;4.05;;
7338;SDS011;33747;49.524;8.390;2024-03-23T15:01:52;3.60;;;1.88;;
7338;SDS011;33747;49.524;8.390;2024-03-23T15:04:17;1.35;;;0.88;;
7338;SDS011;33747;49.524;8.390;2024-03-23T15:06:43;5.53;;;1.42;;
7338;SDS011;33747;49.524;8.390;2024-03-23T15:09:11;2.72;;;1.30;;
7338;SDS011;33747;49.524;8.390;2024-03-23T15:11:37;1.52;;;0.80;;
7338;SDS011;33747;49.524;8.390;2024-03-23T15:14:02;6.93;;;0.90;;
7338;SDS011;33747;49.524;8.390;2024-03-23T15:16:27;7.03;;;0.80;;
7338;SDS011;33747;49.524;8.390;2024-03-23T15:18:54;2.75;;;0.90;;
7338;SDS011;33747;49.524;8.390;2024-03-23T15:21:20;4.03;;;1.20;;
7338;SDS011;33747;49.524;8.390;2024-03-23T15:23:46;2.15;;;1.17;;
7338;SDS011;33747;49.524;8.390;2024-03-23T15:26:12;2.65;;;1.00;;
7338;SDS011;33747;49.524;8.390;2024-03-23T15:28:37;2.20;;;0.93;;
7338;SDS011;33747;49.524;8.390;2024-03-23T15:31:07;1.58;;;0.80;;
7338;SDS011;33747;49.524;8.390;2024-03-23T15:33:37;0.82;;;0.80;;
7338;SDS011;33747;49.524;8.390;2024-03-23T15:36:04;4.53;;;0.90;;
7338;SDS011;33747;49.524;8.390;2024-03-23T15:38:34;1.02;;;0.90;;
7338;SDS011;33747;49.524;8.390;2024-03-23T15:41:00;0.82;;;0.82;;
7338;SDS011;33747;49.524;8.390;2024-03-23T15:43:25;3.03;;;1.00;;
7338;SDS011;33747;49.524;8.390;2024-03-23T15:45:58;2.42;;;0.93;;
7338;SDS011;33747;49.524;8.390;2024-03-23T15:48:25;1.58;;;1.10;;
7338;SDS011;33747;49.524;8.390;2024-03-23T15:50:54;5.97;;;1.35;;
7338;SDS011;33747;49.524;8.390;2024-03-23T15:53:21;1.17;;;1.08;;
7338;SDS011;33747;49.524;8.390;2024-03-23T15:55:56;5.78;;;1.77;;
7338;SDS011;33747;49.524;8.390;2024-03-23T15:58:25;2.95;;;1.38;;
7338;SDS011;33747;49.524;8.390;2024-03-23T16:00:57;3.80;;;1.27;;